Time;durP1;ratioP1;P1;durP2;ratioP2;P2;SDS_P1;SDS_P2;PMS_P1;PMS_P2;Temp;Humidity;BMP_temperature;BMP_pressure;BME280_temperature;BME280_humidity;BME280_pressure;Samples;Min_cycle;Max_cycle;Signal;HPM_P1;HPM_P2
2023/05/03 00:02:06;;;;;;;;;;;;;;;26.79;41.13;94759.28;5024261;28;7290;-62
2023/05/03 00:04:33;;;;;;;;;;;;;;;26.80;41.44;94766.28;5032276;28;7646;-61
2023/05/03 00:07:28;;;;;;;;;;;;;;;26.78;41.52;94766.06;5034088;28;8722;-62
2023/05/03 00:10:05;;;;;;;;;;;;;;;26.74;40.76;94758.06;5035179;28;7270;-62
2023/05/03 00:12:45;;;;;;;;;;;;;;;26.71;41.35;94758.28;5031918;28;9007;-62
2023/05/03 00:15:32;;;;;;;;;;;;;;;26.71;41.00;94764.56;5028954;28;7301;-62
2023/05/03 00:18:17;;;;;;;;;;;;;;;26.70;41.05;94756.78;5032656;28;9449;-62
2023/05/03 00:20:50;;;;;;;;;;;;;;;26.63;41.26;94763.59;5014747;28;7117;-61
2023/05/03 00:23:32;;;;;;;;;;;;;;;26.61;41.07;94763.34;5017017;28;8915;-62
2023/05/03 00:25:59;;;;;;;;;;;;;;;26.59;41.74;94756.84;5022449;28;9308;-62
2023/05/03 00:28:31;;;;;;;;;;;;;;;26.59;41.60;94759.59;5021032;28;7052;-62
2023/05/03 00:31:19;;;;;;;;;;;;;;;26.65;41.59;94763.09;5031673;28;8394;-62
2023/05/03 00:33:59;;;;;;;;;;;;;;;26.63;41.40;94751.81;5025722;28;7315;-62
2023/05/03 00:36:39;;;;;;;;;;;;;;;26.64;40.90;94756.81;5045557;28;7321;-62
2023/05/03 00:39:14;;;;;;;;;;;;;;;26.59;41.87;94757.59;5026225;28;7055;-62
2023/05/03 00:41:40;;;;;;;;;;;;;;;26.53;41.21;94745.84;5037086;28;9054;-62
2023/05/03 00:44:11;;;;;;;;;;;;;;;26.58;40.92;94739.53;5033593;28;7146;-62
2023/05/03 00:46:45;;;;;;;;;;;;;;;26.56;41.26;94746.81;5014593;28;7327;-61
2023/05/03 00:49:24;;;;;;;;;;;;;;;26.54;41.33;94744.56;5040533;28;7056;-62
2023/05/03 00:51:54;;;;;;;;;;;;;;;26.53;41.51;94747.84;5015048;28;7365;-62
2023/05/03 00:54:23;;;;;;;;;;;;;;;26.56;41.75;94747.56;5022878;28;9032;-62
2023/05/03 00:57:08;;;;;;;;;;;;;;;26.54;41.04;94733.53;5024454;28;6993;-62
2023/05/03 00:59:59;;;;;;;;;;;;;;;26.55;41.20;94745.31;5023213;28;9346;-62
2023/05/03 01:02:35;;;;;;;;;;;;;;;26.55;41.02;94743.31;5032230;28;8731;-62
2023/05/03 01:05:38;;;;;;;;;;;;;;;26.57;41.42;94740.06;5015411;28;7126;-62
2023/05/03 01:08:42;;;;;;;;;;;;;;;26.55;41.51;94735.06;5002927;28;9539;-62
2023/05/03 01:11:40;;;;;;;;;;;;;;;26.56;40.94;94735.78;4987828;28;7252;-62
2023/05/03 01:14:45;;;;;;;;;;;;;;;26.53;41.39;94734.81;4992025;28;7288;-62
2023/05/03 01:17:28;;;;;;;;;;;;;;;26.54;41.59;94733.53;5011306;28;7049;-62
2023/05/03 01:20:12;;;;;;;;;;;;;;;26.51;41.15;94729.03;4993160;28;9517;-62
2023/05/03 01:23:30;;;;;;;;;;;;;;;26.54;40.88;94724.50;4997300;28;9329;-62
2023/05/03 01:26:35;;;;;;;;;;;;;;;26.52;41.47;94732.53;4973454;28;9251;-62
2023/05/03 01:29:16;;;;;;;;;;;;;;;26.50;41.22;94721.28;4964905;28;9000;-62
2023/05/03 01:32:05;;;;;;;;;;;;;;;26.50;41.40;94724.78;4976551;28;8984;-62
2023/05/03 01:35:15;;;;;;;;;;;;;;;26.50;41.30;94716.50;4983963;28;9616;-62
2023/05/03 01:37:51;;;;;;;;;;;;;;;26.49;41.40;94719.78;4963371;28;9182;-62
2023/05/03 01:40:22;;;;;;;;;;;;;;;26.49;41.26;94725.31;4985079;28;9121;-62
2023/05/03 01:43:02;;;;;;;;;;;;;;;26.51;41.31;94728.31;4973950;28;6998;-62
2023/05/03 01:45:49;;;;;;;;;;;;;;;26.48;40.99;94735.56;4955514;28;9449;-62
2023/05/03 01:48:39;;;;;;;;;;;;;;;26.48;41.55;94724.53;4952117;28;9242;-62
2023/05/03 01:51:15;;;;;;;;;;;;;;;26.47;41.19;94722.31;4952085;28;8713;-62
2023/05/03 01:53:53;;;;;;;;;;;;;;;26.46;41.28;94718.03;4954413;28;7015;-62
2023/05/03 01:56:38;;;;;;;;;;;;;;;26.44;41.12;94717.78;4953099;28;7466;-62
2023/05/03 01:59:48;;;;;;;;;;;;;;;26.45;41.10;94719.28;4955919;28;7173;-62
2023/05/03 02:02:25;;;;;;;;;;;;;;;26.45;41.71;94711.00;4930258;28;9024;-62
2023/05/03 02:05:04;;;;;;;;;;;;;;;26.45;41.52;94719.28;4936245;28;9413;-62
2023/05/03 02:07:59;;;;;;;;;;;;;;;26.45;41.83;94730.31;4937416;28;7071;-62
2023/05/03 02:11:00;;;;;;;;;;;;;;;26.45;41.13;94733.06;4933379;28;7566;-62
2023/05/03 02:13:38;;;;;;;;;;;;;;;26.44;41.88;94728.81;4928541;28;9338;-62
2023/05/03 02:16:12;;;;;;;;;;;;;;;26.41;40.99;94729.84;4940336;28;7327;-62
2023/05/03 02:18:40;;;;;;;;;;;;;;;26.42;41.27;94734.09;4931273;28;7207;-62
2023/05/03 02:21:12;;;;;;;;;;;;;;;26.40;41.52;94729.09;4951240;28;9275;-62
2023/05/03 02:23:38;;;;;;;;;;;;;;;26.41;41.23;94729.84;4948612;29;9034;-62
2023/05/03 02:26:04;;;;;;;;;;;;;;;26.43;41.62;94732.81;4925836;29;9306;-61
2023/05/03 02:29:15;;;;;;;;;;;;;;;26.44;41.18;94734.34;4952185;29;6977;-62
2023/05/03 02:32:08;;;;;;;;;;;;;;;26.42;41.83;94726.59;4939196;28;8725;-62
2023/05/03 02:34:49;;;;;;;;;;;;;;;26.42;41.04;94723.06;4936424;29;8987;-61
2023/05/03 02:37:27;;;;;;;;;;;;;;;26.39;41.10;94713.81;4949450;29;9174;-62
2023/05/03 02:40:04;;;;;;;;;;;;;;;26.40;41.76;94712.56;4970223;28;7196;-62
2023/05/03 02:42:30;;;;;;;;;;;;;;;26.40;41.60;94718.06;5007282;28;7245;-62
2023/05/03 02:44:56;;;;;;;;;;;;;;;26.40;41.64;94722.81;4994748;28;9126;-62
2023/05/03 02:47:26;;;;;;;;;;;;;;;26.41;41.72;94713.28;4993571;28;7338;-62
2023/05/03 02:50:31;;;;;;;;;;;;;;;26.41;41.71;94710.53;5027096;28;7210;-62
2023/05/03 02:52:57;;;;;;;;;;;;;;;26.39;41.44;94711.03;5017712;28;7024;-61
2023/05/03 02:55:23;;;;;;;;;;;;;;;26.38;41.69;94708.81;5042544;28;9746;-61
2023/05/03 02:57:50;;;;;;;;;;;;;;;26.37;41.42;94707.28;5027966;28;7027;-61
2023/05/03 03:00:16;;;;;;;;;;;;;;;26.37;41.01;94704.53;5021628;28;7313;-61
2023/05/03 03:02:52;;;;;;;;;;;;;;;26.37;41.10;94704.53;5028336;28;9074;-61
2023/05/03 03:05:49;;;;;;;;;;;;;;;26.35;41.13;94698.78;5039553;28;7023;-61
2023/05/03 03:08:26;;;;;;;;;;;;;;;26.33;41.85;94710.31;5014031;28;7051;-61
2023/05/03 03:11:00;;;;;;;;;;;;;;;26.32;41.03;94708.81;5019439;28;7366;-61
2023/05/03 03:13:38;;;;;;;;;;;;;;;26.32;41.43;94697.06;5015598;28;7345;-61
2023/05/03 03:16:09;;;;;;;;;;;;;;;26.32;41.32;94703.28;5016378;28;9379;-61
2023/05/03 03:19:04;;;;;;;;;;;;;;;26.33;41.90;94693.03;5028304;28;9169;-61
2023/05/03 03:21:31;;;;;;;;;;;;;;;26.33;41.72;94695.78;5033012;28;8743;-61
2023/05/03 03:24:15;;;;;;;;;;;;;;;26.32;41.73;94686.75;5038597;28;7084;-61
2023/05/03 03:26:41;;;;;;;;;;;;;;;26.32;41.63;94681.22;5030680;28;9024;-61
2023/05/03 03:29:18;;;;;;;;;;;;;;;26.31;41.21;94676.22;5019847;28;7518;-61
2023/05/03 03:32:06;;;;;;;;;;;;;;;26.29;41.72;94687.03;5034845;28;7215;-61
2023/05/03 03:34:39;;;;;;;;;;;;;;;26.32;41.02;94691.53;5027589;28;7333;-61
2023/05/03 03:37:09;;;;;;;;;;;;;;;26.32;41.60;94688.78;5026246;28;7241;-61
2023/05/03 03:39:50;;;;;;;;;;;;;;;26.32;41.26;94686.03;5032393;28;9536;-61
2023/05/03 03:42:27;;;;;;;;;;;;;;;26.33;41.56;94676.47;5040435;28;9129;-60
2023/05/03 03:44:53;;;;;;;;;;;;;;;26.31;41.50;94679.75;5031575;28;9070;-60
2023/05/03 03:47:23;;;;;;;;;;;;;;;26.27;41.60;94667.47;5031346;28;9663;-61
2023/05/03 03:49:52;;;;;;;;;;;;;;;26.29;41.38;94673.25;5024470;28;9325;-61
2023/05/03 03:52:21;;;;;;;;;;;;;;;26.28;41.07;94678.00;5030126;28;9566;-61
2023/05/03 03:54:47;;;;;;;;;;;;;;;26.30;41.04;94688.50;5027294;28;9123;-61
2023/05/03 03:57:28;;;;;;;;;;;;;;;26.28;41.76;94682.75;5018351;28;7239;-60
2023/05/03 04:00:10;;;;;;;;;;;;;;;26.29;41.56;94687.78;5015938;28;6997;-61
2023/05/03 04:02:46;;;;;;;;;;;;;;;26.29;41.27;94690.53;5027745;28;7194;-60
2023/05/03 04:05:19;;;;;;;;;;;;;;;26.28;41.46;94688.28;5031349;28;9249;-60
2023/05/03 04:07:45;;;;;;;;;;;;;;;26.27;41.86;94687.53;5016242;28;7035;-61
2023/05/03 04:10:28;;;;;;;;;;;;;;;26.24;41.58;94690.53;5030868;28;7700;-61
2023/05/03 04:12:55;;;;;;;;;;;;;;;26.24;41.33;94687.78;5025178;28;7038;-61
2023/05/03 04:15:38;;;;;;;;;;;;;;;26.24;41.73;94687.78;5031581;28;7094;-61
2023/05/03 04:18:22;;;;;;;;;;;;;;;26.23;41.72;94686.31;5032058;28;7260;-61
2023/05/03 04:20:51;;;;;;;;;;;;;;;26.23;41.22;94687.03;5024784;28;9452;-61
2023/05/03 04:23:19;;;;;;;;;;;;;;;26.23;41.39;94686.31;5024535;28;8379;-61
2023/05/03 04:26:00;;;;;;;;;;;;;;;26.24;41.63;94683.03;5026828;28;9711;-61
2023/05/03 04:28:37;;;;;;;;;;;;;;;26.22;41.36;94680.03;5024020;28;7262;-61
2023/05/03 04:31:08;;;;;;;;;;;;;;;26.24;41.32;94688.53;5033389;28;7033;-61
2023/05/03 04:33:37;;;;;;;;;;;;;;;26.21;41.84;94680.56;5035159;28;8982;-60
2023/05/03 04:36:03;;;;;;;;;;;;;;;26.22;41.92;94680.03;5013441;28;7288;-61
2023/05/03 04:38:32;;;;;;;;;;;;;;;26.21;41.23;94689.56;5028113;28;7107;-61
2023/05/03 04:40:58;;;;;;;;;;;;;;;26.19;41.22;94686.56;5027823;28;7048;-61
2023/05/03 04:43:38;;;;;;;;;;;;;;;26.24;41.41;94698.81;5027693;28;9053;-61
2023/05/03 04:46:18;;;;;;;;;;;;;;;26.23;41.20;94702.84;5024022;28;7108;-61
2023/05/03 04:48:51;;;;;;;;;;;;;;;26.23;41.43;94719.41;5018920;28;8759;-61
2023/05/03 04:51:30;;;;;;;;;;;;;;;26.19;41.34;94703.09;5031073;28;9419;-61
2023/05/03 04:53:57;;;;;;;;;;;;;;;26.21;41.31;94711.59;5032584;28;7061;-61
2023/05/03 04:56:25;;;;;;;;;;;;;;;26.21;41.51;94713.63;5017573;28;8722;-61
2023/05/03 04:59:07;;;;;;;;;;;;;;;26.21;41.86;94719.88;5031550;28;9391;-61
2023/05/03 05:01:43;;;;;;;;;;;;;;;26.20;41.52;94717.63;5022517;28;7251;-61
2023/05/03 05:04:11;;;;;;;;;;;;;;;26.21;42.09;94721.91;5014420;28;7320;-61
2023/05/03 05:06:53;;;;;;;;;;;;;;;26.21;41.10;94727.44;5032932;28;8995;-61
2023/05/03 05:09:29;;;;;;;;;;;;;;;26.19;41.69;94724.44;5017760;28;9089;-61
2023/05/03 05:12:06;;;;;;;;;;;;;;;26.19;41.43;94729.94;5031965;28;9331;-61
2023/05/03 05:14:45;;;;;;;;;;;;;;;26.19;41.29;94735.44;5047938;28;9119;-61
2023/05/03 05:17:25;;;;;;;;;;;;;;;26.18;41.31;94729.19;5031254;28;9094;-61
2023/05/03 05:20:06;;;;;;;;;;;;;;;26.18;41.47;94742.97;5033354;28;9488;-62
2023/05/03 05:22:43;;;;;;;;;;;;;;;26.20;41.03;94742.44;5020905;28;7285;-62
2023/05/03 05:25:18;;;;;;;;;;;;;;;26.17;41.04;94733.94;5020763;28;9135;-61
2023/05/03 05:27:48;;;;;;;;;;;;;;;26.17;41.31;94742.22;5039274;28;9226;-62
2023/05/03 05:30:46;;;;;;;;;;;;;;;26.18;41.38;94740.22;5023037;28;8997;-61
2023/05/03 05:33:30;;;;;;;;;;;;;;;26.13;41.50;94738.22;4972344;28;7123;-61
2023/05/03 05:36:13;;;;;;;;;;;;;;;26.15;41.20;94744.72;4987089;28;7264;-61
2023/05/03 05:38:41;;;;;;;;;;;;;;;26.14;41.11;94745.97;4955803;28;8730;-61
2023/05/03 05:41:44;;;;;;;;;;;;;;;26.14;41.35;94745.97;4967927;28;8818;-61
2023/05/03 05:44:19;;;;;;;;;;;;;;;26.12;41.61;94759.50;4915677;28;9005;-62
2023/05/03 05:46:58;;;;;;;;;;;;;;;26.12;42.14;94750.50;4912591;29;9066;-61
2023/05/03 05:49:38;;;;;;;;;;;;;;;26.10;42.71;94751.00;4898709;29;9063;-62
2023/05/03 05:52:40;;;;;;;;;;;;;;;26.14;42.16;94757.00;4899708;29;7065;-62
2023/05/03 05:55:07;;;;;;;;;;;;;;;26.13;41.64;94763.78;4837015;29;7597;-61
2023/05/03 05:57:36;;;;;;;;;;;;;;;26.15;43.11;94764.03;4841966;29;7233;-62
2023/05/03 06:00:13;;;;;;;;;;;;;;;26.18;41.83;94762.25;4838493;29;7235;-61
2023/05/03 06:03:06;;;;;;;;;;;;;;;26.17;41.89;94767.03;4855236;29;7450;-61
2023/05/03 06:05:37;;;;;;;;;;;;;;;26.15;42.14;94764.03;4859092;29;8736;-61
2023/05/03 06:08:13;;;;;;;;;;;;;;;26.14;41.70;94761.78;4854486;29;7350;-61
2023/05/03 06:10:57;;;;;;;;;;;;;;;26.10;42.11;94756.50;4840789;29;7367;-61
2023/05/03 06:13:39;;;;;;;;;;;;;;;26.12;42.18;94754.00;4857288;29;9051;-61
2023/05/03 06:16:36;;;;;;;;;;;;;;;26.12;41.86;94751.25;4843895;29;7421;-61
2023/05/03 06:19:30;;;;;;;;;;;;;;;26.11;42.73;94741.47;4857240;29;9154;-61
2023/05/03 06:21:56;;;;;;;;;;;;;;;26.13;42.73;94750.00;4864550;29;8750;-61
2023/05/03 06:24:23;;;;;;;;;;;;;;;26.14;41.93;94753.50;4891164;29;7125;-61
2023/05/03 06:27:01;;;;;;;;;;;;;;;26.12;41.86;94745.00;4879850;29;7383;-61
2023/05/03 06:29:36;;;;;;;;;;;;;;;26.12;42.05;94750.50;4939824;28;9015;-61
2023/05/03 06:32:18;;;;;;;;;;;;;;;26.13;42.12;94746.47;4959598;28;9464;-61
2023/05/03 06:38:37;;;;;;;;;;;;;;;26.12;42.11;94759.50;4981157;28;8720;-60
2023/05/03 06:41:11;;;;;;;;;;;;;;;26.11;42.06;94752.50;4969541;28;8645;-60
2023/05/03 06:43:48;;;;;;;;;;;;;;;26.11;42.38;94751.75;4991048;28;7035;-61
2023/05/03 06:46:27;;;;;;;;;;;;;;;26.11;41.48;94746.25;4979911;28;8081;-61
2023/05/03 06:49:02;;;;;;;;;;;;;;;26.10;42.57;94742.72;4975134;28;7271;-62
2023/05/03 06:52:02;;;;;;;;;;;;;;;26.11;42.43;94741.47;4977983;28;9053;-61
2023/05/03 06:54:28;;;;;;;;;;;;;;;26.10;42.02;94751.00;4993692;28;7473;-61
2023/05/03 06:57:01;;;;;;;;;;;;;;;26.10;41.73;94745.47;5035767;28;8754;-61
2023/05/03 06:59:27;;;;;;;;;;;;;;;26.11;41.70;94752.50;5020939;28;9005;-60
2023/05/03 07:02:01;;;;;;;;;;;;;;;26.10;42.41;94745.47;5035850;28;7018;-61
2023/05/03 07:05:01;;;;;;;;;;;;;;;26.12;42.42;94736.72;5018277;28;8762;-61
2023/05/03 07:07:27;;;;;;;;;;;;;;;26.09;42.51;94732.22;5020460;28;8893;-61
2023/05/03 07:10:04;;;;;;;;;;;;;;;26.11;42.19;94729.69;5026794;28;9072;-61
2023/05/03 07:12:42;;;;;;;;;;;;;;;26.08;42.33;94728.69;5018865;28;7812;-61
2023/05/03 07:15:15;;;;;;;;;;;;;;;26.11;41.57;94724.94;5034883;28;8541;-61
2023/05/03 07:17:45;;;;;;;;;;;;;;;26.10;42.53;94731.69;5010058;28;9199;-61
2023/05/03 07:20:26;;;;;;;;;;;;;;;26.09;41.92;94727.47;5032366;28;9135;-61
2023/05/03 07:23:05;;;;;;;;;;;;;;;26.10;42.03;94720.66;5016587;28;7457;-61
2023/05/03 07:25:32;;;;;;;;;;;;;;;26.11;41.64;94726.94;5032303;28;9034;-61
2023/05/03 07:28:12;;;;;;;;;;;;;;;26.11;41.81;94721.44;5034686;28;7030;-61
2023/05/03 07:30:51;;;;;;;;;;;;;;;26.11;42.21;94724.19;5022186;28;9490;-61
2023/05/03 07:33:18;;;;;;;;;;;;;;;26.11;41.34;94719.44;5036492;28;9414;-61
2023/05/03 07:35:49;;;;;;;;;;;;;;;26.10;42.12;94717.16;5016461;28;8777;-61
2023/05/03 07:38:19;;;;;;;;;;;;;;;26.10;41.76;94717.16;5040895;28;9134;-61
2023/05/03 07:41:12;;;;;;;;;;;;;;;26.09;41.88;94713.69;5015924;28;7497;-61
2023/05/03 07:43:57;;;;;;;;;;;;;;;26.10;41.82;94712.41;5002159;28;9208;-61
2023/05/03 07:47:03;;;;;;;;;;;;;;;26.12;42.43;94715.41;4989360;28;8785;-61
2023/05/03 07:50:03;;;;;;;;;;;;;;;26.11;41.70;94713.91;4995540;28;9093;-61
2023/05/03 07:52:42;;;;;;;;;;;;;;;26.11;41.64;94707.66;4966364;28;7849;-61
2023/05/03 07:55:08;;;;;;;;;;;;;;;26.12;41.62;94706.41;4974122;28;7104;-61
2023/05/03 07:58:22;;;;;;;;;;;;;;;26.11;41.45;94705.66;4958191;28;9779;-61
2023/05/03 08:00:52;;;;;;;;;;;;;;;26.10;42.11;94695.09;4891525;29;6991;-62
2023/05/03 08:03:45;;;;;;;;;;;;;;;26.10;42.35;94704.13;4894096;29;9038;-61
2023/05/03 08:06:17;;;;;;;;;;;;;;;26.10;42.04;94700.63;4892783;29;7069;-61
2023/05/03 08:09:27;;;;;;;;;;;;;;;26.08;41.99;94695.63;4917710;29;9056;-61
2023/05/03 08:12:02;;;;;;;;;;;;;;;26.08;42.03;94686.56;4916450;29;9425;-60
2023/05/03 08:14:32;;;;;;;;;;;;;;;26.09;41.60;94693.63;4901212;29;7058;-61
2023/05/03 08:17:11;;;;;;;;;;;;;;;26.08;41.69;94690.09;4909083;29;9173;-61
2023/05/03 08:19:50;;;;;;;;;;;;;;;26.08;42.01;94681.06;4904312;29;8789;-61
2023/05/03 08:22:27;;;;;;;;;;;;;;;26.09;42.12;94694.38;4915183;29;8843;-61
2023/05/03 08:24:55;;;;;;;;;;;;;;;26.11;42.35;94691.09;4922579;29;9237;-61
2023/05/03 08:27:38;;;;;;;;;;;;;;;26.09;42.00;94683.34;4918634;28;8677;-61
2023/05/03 08:30:06;;;;;;;;;;;;;;;26.08;42.20;94681.06;4984151;28;9268;-61
2023/05/03 08:32:57;;;;;;;;;;;;;;;26.07;41.80;94685.06;4976661;28;9336;-62
2023/05/03 08:35:35;;;;;;;;;;;;;;;26.05;41.84;94676.56;4958699;28;7027;-61
2023/05/03 08:38:27;;;;;;;;;;;;;;;26.09;42.15;94677.84;5011238;28;7268;-61
2023/05/03 08:41:17;;;;;;;;;;;;;;;26.07;41.93;94672.06;5036105;28;9666;-61
2023/05/03 08:43:53;;;;;;;;;;;;;;;26.09;42.31;94672.31;5031400;28;9196;-61
2023/05/03 08:46:27;;;;;;;;;;;;;;;26.09;41.66;94661.28;5022332;28;9303;-61
2023/05/03 08:48:54;;;;;;;;;;;;;;;26.10;41.59;94662.03;5038866;28;7371;-61
2023/05/03 08:52:05;;;;;;;;;;;;;;;26.08;41.66;94659.78;5022897;28;9511;-61
2023/05/03 08:54:41;;;;;;;;;;;;;;;26.09;42.51;94671.56;4991189;28;9491;-61
2023/05/03 08:57:13;;;;;;;;;;;;;;;26.10;41.65;94673.06;4994254;28;7121;-61
2023/05/03 09:00:00;;;;;;;;;;;;;;;26.10;42.46;94660.03;4998157;28;9052;-61
2023/05/03 09:03:02;;;;;;;;;;;;;;;26.11;41.94;94663.53;4993752;28;9781;-61
2023/05/03 09:06:20;;;;;;;;;;;;;;;26.11;42.23;94666.28;4977751;28;7217;-61
2023/05/03 09:08:58;;;;;;;;;;;;;;;26.11;41.77;94661.53;4946909;28;9142;-61
2023/05/03 09:11:48;;;;;;;;;;;;;;;26.12;42.14;94657.50;4962324;28;7284;-61
2023/05/03 09:14:45;;;;;;;;;;;;;;;26.11;41.87;94658.78;4955686;28;9284;-61
2023/05/03 09:17:27;;;;;;;;;;;;;;;26.11;42.30;94653.28;4957694;28;9211;-60
2023/05/03 09:20:12;;;;;;;;;;;;;;;26.13;42.40;94663.78;4956610;28;9063;-61
2023/05/03 09:22:56;;;;;;;;;;;;;;;26.12;42.12;94668.53;4956875;28;9650;-61
2023/05/03 09:29:35;;;;;;;;;;;;;;;26.13;42.01;94661.78;4964161;28;6765;-61
2023/05/03 09:32:18;;;;;;;;;;;;;;;26.13;41.90;94669.28;4928375;28;7115;-61
2023/05/03 09:35:16;;;;;;;;;;;;;;;26.12;42.00;94663.03;4918805;29;7041;-61
2023/05/03 09:37:51;;;;;;;;;;;;;;;26.13;41.88;94669.28;4896099;29;8224;-61
2023/05/03 09:40:30;;;;;;;;;;;;;;;26.12;42.28;94668.53;4878716;29;7341;-61
2023/05/03 09:43:54;;;;;;;;;;;;;;;26.16;41.64;94669.00;4896771;29;9030;-61
2023/05/03 09:46:22;;;;;;;;;;;;;;;26.10;42.46;94668.28;4822324;29;7200;-61
2023/05/03 09:49:01;;;;;;;;;;;;;;;26.07;41.82;94668.53;4805477;29;7278;-61
2023/05/03 09:51:40;;;;;;;;;;;;;;;26.05;42.62;94674.56;4823058;29;9454;-62
2023/05/03 09:54:18;;;;;;;;;;;;;;;26.09;42.51;94666.06;4822180;29;7066;-61
2023/05/03 09:56:48;;;;;;;;;;;;;;;26.11;42.41;94669.06;4807566;29;7328;-61
2023/05/03 09:59:16;;;;;;;;;;;;;;;26.11;42.79;94677.31;4807225;29;7043;-61
2023/05/03 10:02:00;;;;;;;;;;;;;;;26.11;42.20;94680.06;4804113;29;8937;-61
2023/05/03 10:04:50;;;;;;;;;;;;;;;26.10;42.57;94679.31;4822620;29;7752;-61
2023/05/03 10:07:18;;;;;;;;;;;;;;;26.11;42.60;94680.84;4822695;29;9187;-62
2023/05/03 10:09:48;;;;;;;;;;;;;;;26.08;41.92;94681.84;4857077;29;8170;-61
2023/05/03 10:12:56;;;;;;;;;;;;;;;26.08;42.84;94684.59;4852875;29;7524;-61
2023/05/03 10:15:54;;;;;;;;;;;;;;;26.09;42.75;94699.13;4917802;29;7260;-61
2023/05/03 10:18:42;;;;;;;;;;;;;;;26.05;42.12;94688.34;4899795;29;9140;-61
2023/05/03 10:21:52;;;;;;;;;;;;;;;26.07;42.64;94687.84;4967058;28;7370;-61
2023/05/03 10:24:25;;;;;;;;;;;;;;;26.07;42.17;94699.63;5001244;28;9146;-61
2023/05/03 10:27:11;;;;;;;;;;;;;;;26.08;42.14;94703.09;5000639;28;7047;-61
2023/05/03 10:29:47;;;;;;;;;;;;;;;26.08;42.78;94703.09;4975696;28;7026;-61
2023/05/03 10:32:43;;;;;;;;;;;;;;;26.07;42.73;94699.63;4994331;28;7057;-61
2023/05/03 10:35:13;;;;;;;;;;;;;;;26.08;42.85;94690.09;4990430;28;7188;-61
2023/05/03 10:37:41;;;;;;;;;;;;;;;26.06;42.17;94687.06;5005498;28;7046;-61
2023/05/03 10:40:12;;;;;;;;;;;;;;;26.09;42.52;94682.59;4989366;28;9200;-61
2023/05/03 10:42:48;;;;;;;;;;;;;;;26.08;42.32;94681.06;4991469;28;8748;-61
2023/05/03 10:45:24;;;;;;;;;;;;;;;26.09;42.11;94680.59;4989506;28;9410;-62
2023/05/03 10:48:11;;;;;;;;;;;;;;;26.08;42.06;94679.06;4997126;28;7132;-61
2023/05/03 10:50:41;;;;;;;;;;;;;;;26.10;42.35;94675.81;4991137;28;9088;-62
2023/05/03 10:53:51;;;;;;;;;;;;;;;26.11;42.75;94680.06;4993888;28;7025;-62
2023/05/03 11:00:43;;;;;;;;;;;;;;;26.11;42.85;94667.06;5013834;28;7023;-62
2023/05/03 11:03:54;;;;;;;;;;;;;;;26.13;42.67;94666.53;5012606;28;7510;-62
2023/05/03 11:06:44;;;;;;;;;;;;;;;26.11;42.13;94669.06;4995847;28;9227;-62
2023/05/03 11:09:13;;;;;;;;;;;;;;;26.10;42.86;94682.06;4997356;28;7975;-62
2023/05/03 11:11:43;;;;;;;;;;;;;;;26.11;42.03;94667.06;4992185;28;9038;-62
2023/05/03 11:14:10;;;;;;;;;;;;;;;26.15;42.43;94677.81;5007514;28;7085;-62
2023/05/03 11:16:39;;;;;;;;;;;;;;;26.17;42.62;94667.78;4973648;28;7496;-61
2023/05/03 11:19:07;;;;;;;;;;;;;;;26.19;41.81;94677.56;5009507;28;7118;-62
2023/05/03 11:21:45;;;;;;;;;;;;;;;26.20;42.15;94668.75;4993756;28;7485;-62
2023/05/03 11:24:20;;;;;;;;;;;;;;;26.23;42.44;94664.25;4997959;28;7814;-62
2023/05/03 11:27:06;;;;;;;;;;;;;;;26.24;41.96;94665.72;4991985;28;8960;-62
2023/05/03 11:29:37;;;;;;;;;;;;;;;26.24;41.85;94655.47;4994450;28;7929;-62
2023/05/03 11:32:06;;;;;;;;;;;;;;;26.26;41.88;94660.47;5007980;28;9032;-62
2023/05/03 11:34:35;;;;;;;;;;;;;;;26.25;42.13;94650.69;4993269;28;7173;-62
2023/05/03 11:37:01;;;;;;;;;;;;;;;26.28;41.83;94660.69;4996853;28;7036;-62
2023/05/03 11:39:31;;;;;;;;;;;;;;;26.28;41.98;94658.69;4994912;28;7734;-62
2023/05/03 11:42:11;;;;;;;;;;;;;;;26.28;41.71;94644.16;4995904;28;7646;-62
2023/05/03 11:45:14;;;;;;;;;;;;;;;26.29;41.45;94651.19;5024781;28;7038;-62
2023/05/03 11:47:56;;;;;;;;;;;;;;;26.32;42.25;94655.69;4981363;28;7156;-62
2023/05/03 11:54:25;;;;;;;;;;;;;;;26.32;42.28;94641.91;4995444;28;7109;-62
2023/05/03 11:56:56;;;;;;;;;;;;;;;26.32;41.79;94645.38;5008166;28;9035;-62
2023/05/03 11:59:50;;;;;;;;;;;;;;;26.33;41.64;94651.66;5001749;28;7369;-62
2023/05/03 12:06:06;;;;;;;;;;;;;;;26.36;42.30;94642.38;4980185;28;9334;-62
2023/05/03 12:08:33;;;;;;;;;;;;;;;26.36;42.19;94645.13;4977437;28;7504;-61
2023/05/03 12:11:38;;;;;;;;;;;;;;;26.36;41.95;94636.84;4975292;28;9159;-62
2023/05/03 12:14:13;;;;;;;;;;;;;;;26.36;41.74;94629.31;4975891;28;9075;-62
2023/05/03 12:17:10;;;;;;;;;;;;;;;26.37;41.82;94628.06;4967700;28;7147;-62
2023/05/03 12:20:15;;;;;;;;;;;;;;;26.39;41.91;94633.06;4962641;28;7542;-62
2023/05/03 12:22:41;;;;;;;;;;;;;;;26.41;41.77;94630.53;4939835;28;7295;-62
2023/05/03 12:25:08;;;;;;;;;;;;;;;26.42;41.57;94635.56;4938714;28;9024;-62
2023/05/03 12:27:36;;;;;;;;;;;;;;;26.41;41.78;94628.53;4936379;28;7164;-62
2023/05/03 12:30:05;;;;;;;;;;;;;;;26.47;41.83;94623.72;4936607;28;9031;-62
2023/05/03 12:32:33;;;;;;;;;;;;;;;26.41;41.96;94630.53;4944056;28;8998;-62
2023/05/03 12:35:15;;;;;;;;;;;;;;;26.40;42.34;94631.81;4936557;28;9262;-62
2023/05/03 12:37:41;;;;;;;;;;;;;;;26.39;42.19;94633.06;4936686;28;9100;-62
2023/05/03 12:40:59;;;;;;;;;;;;;;;26.40;41.91;94618.78;4933141;28;7425;-62
2023/05/03 12:43:27;;;;;;;;;;;;;;;26.42;41.68;94619.03;4882199;29;8938;-62
2023/05/03 12:45:53;;;;;;;;;;;;;;;26.45;41.80;94622.75;4881840;29;8722;-62
2023/05/03 12:48:29;;;;;;;;;;;;;;;26.47;41.60;94614.72;4894308;29;8793;-62
2023/05/03 12:50:58;;;;;;;;;;;;;;;26.50;42.16;94611.69;4906856;29;7145;-62
2023/05/03 12:53:32;;;;;;;;;;;;;;;26.48;41.72;94608.69;4882367;29;9038;-62
2023/05/03 12:56:03;;;;;;;;;;;;;;;26.53;42.16;94612.69;4906900;29;9290;-62
2023/05/03 12:58:43;;;;;;;;;;;;;;;26.54;42.09;94605.88;4916043;28;7052;-62
2023/05/03 13:01:17;;;;;;;;;;;;;;;26.54;41.73;94606.63;4968840;28;7371;-62
2023/05/03 13:03:53;;;;;;;;;;;;;;;26.56;41.77;94600.59;4973308;28;8744;-62
2023/05/03 13:06:41;;;;;;;;;;;;;;;26.58;42.18;94600.84;4948587;28;8678;-61
2023/05/03 13:09:37;;;;;;;;;;;;;;;26.58;41.74;94596.06;4957734;28;9019;-62
2023/05/03 13:12:24;;;;;;;;;;;;;;;26.57;41.87;94591.84;4951244;28;7022;-62
2023/05/03 13:15:06;;;;;;;;;;;;;;;26.59;41.87;94591.31;4954885;28;9412;-62
2023/05/03 13:17:40;;;;;;;;;;;;;;;26.62;41.58;94591.03;4947247;28;8696;-63
2023/05/03 13:20:58;;;;;;;;;;;;;;;26.66;41.90;94585.25;4966622;28;10155;-62
2023/05/03 13:24:10;;;;;;;;;;;;;;;26.69;41.92;94590.47;4957248;28;7342;-62
2023/05/03 13:26:46;;;;;;;;;;;;;;;26.70;41.73;94586.47;4945440;28;9736;-62
2023/05/03 13:29:23;;;;;;;;;;;;;;;26.71;42.33;94576.16;4930013;29;9076;-62
2023/05/03 13:32:08;;;;;;;;;;;;;;;26.75;42.45;94587.72;4944503;28;7386;-62
2023/05/03 13:35:08;;;;;;;;;;;;;;;26.76;41.60;94581.69;4921288;29;7265;-62
2023/05/03 13:37:37;;;;;;;;;;;;;;;26.78;41.61;94581.16;4941379;28;8636;-62
2023/05/03 13:40:18;;;;;;;;;;;;;;;26.80;41.60;94573.09;4938781;28;9079;-62
2023/05/03 13:42:54;;;;;;;;;;;;;;;26.82;41.28;94565.06;4952721;28;7221;-62
2023/05/03 13:45:24;;;;;;;;;;;;;;;26.84;42.12;94560.53;4937922;28;9081;-62
2023/05/03 13:48:01;;;;;;;;;;;;;;;26.86;41.85;94560.03;4949402;28;9166;-62
2023/05/03 13:50:29;;;;;;;;;;;;;;;26.88;41.73;94563.75;4950681;28;7248;-62
2023/05/03 13:53:08;;;;;;;;;;;;;;;26.90;41.96;94563.97;4963955;28;8500;-62
2023/05/03 13:56:20;;;;;;;;;;;;;;;26.93;41.49;94559.44;4942028;28;7025;-62
2023/05/03 13:58:46;;;;;;;;;;;;;;;26.96;41.48;94561.19;4965465;28;7291;-62
2023/05/03 14:01:32;;;;;;;;;;;;;;;26.95;41.27;94545.88;4960034;28;7183;-62
2023/05/03 14:03:58;;;;;;;;;;;;;;;26.99;41.53;94545.63;5002712;28;7174;-62
2023/05/03 14:06:36;;;;;;;;;;;;;;;27.06;41.27;94545.78;5023876;28;7963;-62
2023/05/03 14:09:05;;;;;;;;;;;;;;;27.08;41.41;94546.00;5020636;28;7264;-62
2023/05/03 14:11:33;;;;;;;;;;;;;;;27.11;41.43;94536.69;5021220;28;9252;-62
2023/05/03 14:14:06;;;;;;;;;;;;;;;27.18;40.74;94535.38;5017912;28;9213;-62
2023/05/03 14:16:39;;;;;;;;;;;;;;;27.19;41.12;94534.09;5030507;28;9239;-62
2023/05/03 14:19:06;;;;;;;;;;;;;;;27.18;40.86;94525.09;5037182;28;7153;-62
2023/05/03 14:21:41;;;;;;;;;;;;;;;27.25;40.86;94535.53;5020941;28;9313;-62
2023/05/03 14:24:14;;;;;;;;;;;;;;;27.25;40.97;94532.03;5036955;28;7871;-62